Time;durP1;ratioP1;P1;durP2;ratioP2;P2;SDS_P1;SDS_P2;PMS_P1;PMS_P2;Temp;Humidity;BMP_temperature;BMP_pressure;BME280_temperature;BME280_humidity;BME280_pressure;Samples;Min_cycle;Max_cycle;Signal;HPM_P1;HPM_P2
2021/12/11 00:01:10;;;;;;;3.90;2.07;;;;;;;;;;5039572;28;20811;-53
2021/12/11 00:03:39;;;;;;;1.93;1.47;;;;;;;;;;5023676;28;20443;-54
2021/12/11 00:06:16;;;;;;;2.70;2.50;;;;;;;;;;5047146;28;20553;-53
2021/12/11 00:08:42;;;;;;;2.70;1.67;;;;;;;;;;5032893;28;20442;-55
2021/12/11 00:11:12;;;;;;;2.50;1.43;;;;;;;;;;5043473;28;20438;-54
2021/12/11 00:13:40;;;;;;;2.60;2.40;;;;;;;;;;5020864;28;20472;-54
2021/12/11 00:16:07;;;;;;;2.57;1.80;;;;;;;;;;5041487;28;20538;-52
2021/12/11 00:18:33;;;;;;;2.47;1.57;;;;;;;;;;5022820;28;20443;-53
2021/12/11 00:21:01;;;;;;;2.10;1.77;;;;;;;;;;5046869;28;20810;-52
2021/12/11 00:23:28;;;;;;;1.60;1.50;;;;;;;;;;4998241;28;20458;-53
2021/12/11 00:25:54;;;;;;;2.20;1.60;;;;;;;;;;5041649;28;20474;-51
2021/12/11 00:28:20;;;;;;;1.73;1.47;;;;;;;;;;5040145;28;20873;-53
2021/12/11 00:30:46;;;;;;;2.50;1.50;;;;;;;;;;5042698;28;20912;-52
2021/12/11 00:33:12;;;;;;;2.87;1.77;;;;;;;;;;5025626;28;20519;-52
2021/12/11 00:35:38;;;;;;;1.67;1.43;;;;;;;;;;5043805;28;20427;-53
2021/12/11 00:38:08;;;;;;;2.43;1.90;;;;;;;;;;5032319;28;20176;-53
2021/12/11 00:40:35;;;;;;;2.80;1.40;;;;;;;;;;5044942;28;20548;-53
2021/12/11 00:43:03;;;;;;;2.03;1.60;;;;;;;;;;5035767;28;20574;-53
2021/12/11 00:45:31;;;;;;;3.00;1.67;;;;;;;;;;5016358;28;21303;-52
2021/12/11 00:47:57;;;;;;;1.50;1.40;;;;;;;;;;5041186;28;20441;-52
2021/12/11 00:50:44;;;;;;;2.47;1.57;;;;;;;;;;5024490;28;20548;-53
2021/12/11 00:53:14;;;;;;;1.53;1.40;;;;;;;;;;5043455;28;20430;-53
2021/12/11 00:55:42;;;;;;;3.40;1.40;;;;;;;;;;5020369;28;20605;-52
2021/12/11 00:58:09;;;;;;;1.63;1.50;;;;;;;;;;5042505;28;20457;-51
2021/12/11 01:00:37;;;;;;;2.43;1.50;;;;;;;;;;5041952;28;20434;-52
2021/12/11 01:03:04;;;;;;;2.60;1.40;;;;;;;;;;5026705;28;20462;-54
2021/12/11 01:05:33;;;;;;;1.80;1.60;;;;;;;;;;5016026;28;20454;-51
2021/12/11 01:07:59;;;;;;;1.67;1.50;;;;;;;;;;5035380;28;20612;-52
2021/12/11 01:10:26;;;;;;;3.97;1.50;;;;;;;;;;5017907;28;20468;-52
2021/12/11 01:13:00;;;;;;;2.03;1.50;;;;;;;;;;5037185;28;20604;-52
2021/12/11 01:15:28;;;;;;;1.60;1.13;;;;;;;;;;5019938;28;20462;-53
2021/12/11 01:18:21;;;;;;;4.00;1.30;;;;;;;;;;5042630;28;20435;-52
2021/12/11 01:20:52;;;;;;;1.73;1.63;;;;;;;;;;5021638;28;20458;-53
2021/12/11 01:23:34;;;;;;;1.57;1.30;;;;;;;;;;5036885;28;20439;-53
2021/12/11 01:26:02;;;;;;;1.67;1.07;;;;;;;;;;5013991;28;20474;-52
2021/12/11 01:28:28;;;;;;;3.30;1.60;;;;;;;;;;5042190;28;20806;-53
2021/12/11 01:30:54;;;;;;;1.30;1.20;;;;;;;;;;5004259;28;20449;-52
2021/12/11 01:33:20;;;;;;;1.57;1.47;;;;;;;;;;5046272;28;20438;-54
2021/12/11 01:35:46;;;;;;;1.80;1.33;;;;;;;;;;5023170;28;21065;-52
2021/12/11 01:38:19;;;;;;;1.90;1.63;;;;;;;;;;5044761;28;21049;-52
2021/12/11 01:40:54;;;;;;;1.70;1.33;;;;;;;;;;5050288;28;20442;-53
2021/12/11 01:43:26;;;;;;;1.87;1.73;;;;;;;;;;5045581;28;20426;-54
2021/12/11 01:45:52;;;;;;;1.70;1.30;;;;;;;;;;5033582;28;22879;-51
2021/12/11 01:48:19;;;;;;;1.57;1.30;;;;;;;;;;5048594;28;20447;-52
2021/12/11 01:50:57;;;;;;;1.90;1.50;;;;;;;;;;5032304;28;20442;-53
2021/12/11 01:53:28;;;;;;;3.47;1.63;;;;;;;;;;5047869;28;21548;-54
2021/12/11 01:55:56;;;;;;;1.77;1.50;;;;;;;;;;5044489;28;20435;-52
2021/12/11 01:58:30;;;;;;;1.50;1.40;;;;;;;;;;5045836;28;21214;-53
2021/12/11 02:01:01;;;;;;;1.50;1.40;;;;;;;;;;5029080;28;20433;-51
2021/12/11 02:03:28;;;;;;;2.23;1.90;;;;;;;;;;5043806;28;20806;-52
2021/12/11 02:05:54;;;;;;;1.20;1.10;;;;;;;;;;5046019;28;20539;-52
2021/12/11 02:08:40;;;;;;;1.47;1.20;;;;;;;;;;5048757;28;20438;-53
2021/12/11 02:11:15;;;;;;;1.40;1.17;;;;;;;;;;5027026;28;21136;-52
2021/12/11 02:13:48;;;;;;;1.30;0.90;;;;;;;;;;5046848;28;20430;-53
2021/12/11 02:16:16;;;;;;;1.20;1.10;;;;;;;;;;5020975;28;20450;-51
2021/12/11 02:18:50;;;;;;;2.37;1.30;;;;;;;;;;5052441;28;20536;-54
2021/12/11 02:21:20;;;;;;;1.23;1.13;;;;;;;;;;5019731;28;20460;-52
2021/12/11 02:23:52;;;;;;;1.10;0.87;;;;;;;;;;5048291;28;20492;-53
2021/12/11 02:26:26;;;;;;;0.90;0.60;;;;;;;;;;5034420;28;20527;-53
2021/12/11 02:28:59;;;;;;;1.40;1.17;;;;;;;;;;5061375;28;20473;-52
2021/12/11 02:31:28;;;;;;;1.13;0.80;;;;;;;;;;5021019;28;20520;-52
2021/12/11 02:33:56;;;;;;;2.50;0.87;;;;;;;;;;5045335;28;20447;-52
2021/12/11 02:36:24;;;;;;;0.97;0.80;;;;;;;;;;5046310;28;20492;-52
2021/12/11 02:38:53;;;;;;;1.13;0.83;;;;;;;;;;5046847;28;20418;-52
2021/12/11 02:41:24;;;;;;;1.00;0.90;;;;;;;;;;5016477;28;20444;-55
2021/12/11 02:43:54;;;;;;;1.33;0.80;;;;;;;;;;5042808;28;20443;-50
2021/12/11 02:46:20;;;;;;;1.30;1.10;;;;;;;;;;5027491;28;20478;-52
2021/12/11 02:48:47;;;;;;;1.23;0.90;;;;;;;;;;5037822;28;20446;-52
2021/12/11 02:51:16;;;;;;;1.07;0.90;;;;;;;;;;5026076;28;20485;-53
2021/12/11 02:53:44;;;;;;;1.00;0.90;;;;;;;;;;5044041;28;20552;-54
2021/12/11 02:56:19;;;;;;;1.20;1.00;;;;;;;;;;5055255;28;20433;-51
2021/12/11 02:58:47;;;;;;;1.23;1.13;;;;;;;;;;5045967;28;20448;-54
2021/12/11 03:01:22;;;;;;;1.00;0.80;;;;;;;;;;5001151;28;20509;-54
2021/12/11 03:04:04;;;;;;;1.57;1.00;;;;;;;;;;5039845;28;20534;-55
2021/12/11 03:06:40;;;;;;;1.30;1.00;;;;;;;;;;5018843;28;20498;-52
2021/12/11 03:09:06;;;;;;;2.07;1.17;;;;;;;;;;5030019;28;20466;-52
2021/12/11 03:11:32;;;;;;;1.27;1.00;;;;;;;;;;5014625;28;20442;-52
2021/12/11 03:14:08;;;;;;;1.40;1.20;;;;;;;;;;5046368;28;20552;-53
2021/12/11 03:16:38;;;;;;;1.30;1.00;;;;;;;;;;5041157;28;20434;-53
2021/12/11 03:19:04;;;;;;;1.93;1.47;;;;;;;;;;5044950;28;20476;-53
2021/12/11 03:21:33;;;;;;;1.30;1.20;;;;;;;;;;5026489;28;20440;-53
2021/12/11 03:24:02;;;;;;;0.97;0.83;;;;;;;;;;5042743;28;20982;-53
2021/12/11 03:26:28;;;;;;;1.50;1.13;;;;;;;;;;5018552;28;20595;-52
2021/12/11 03:28:54;;;;;;;1.80;1.70;;;;;;;;;;5041618;28;20510;-53
2021/12/11 03:31:21;;;;;;;1.83;1.20;;;;;;;;;;5040388;28;20192;-53
2021/12/11 03:33:48;;;;;;;1.90;1.70;;;;;;;;;;5040687;28;20453;-54
2021/12/11 03:36:15;;;;;;;1.20;1.10;;;;;;;;;;5005665;28;20453;-54
2021/12/11 03:38:42;;;;;;;2.23;1.70;;;;;;;;;;5020682;28;20507;-53
2021/12/11 03:41:08;;;;;;;1.40;1.30;;;;;;;;;;5042110;28;20818;-53
2021/12/11 03:43:34;;;;;;;1.83;1.53;;;;;;;;;;5002650;28;20553;-51
2021/12/11 03:46:01;;;;;;;1.93;1.20;;;;;;;;;;5042386;28;20755;-52
2021/12/11 03:48:31;;;;;;;2.33;1.97;;;;;;;;;;5034192;28;20442;-52
2021/12/11 03:50:58;;;;;;;2.30;1.57;;;;;;;;;;5039084;28;20447;-52
2021/12/11 03:53:32;;;;;;;1.50;1.40;;;;;;;;;;5048039;28;20561;-52
2021/12/11 03:55:59;;;;;;;1.60;1.50;;;;;;;;;;5040269;28;20516;-52
2021/12/11 03:58:25;;;;;;;2.27;2.07;;;;;;;;;;5025366;28;20702;-53
2021/12/11 04:00:54;;;;;;;2.10;1.90;;;;;;;;;;5030822;28;20846;-52
2021/12/11 04:03:25;;;;;;;2.33;2.13;;;;;;;;;;5029360;28;20520;-52
2021/12/11 04:05:52;;;;;;;3.10;2.10;;;;;;;;;;5041580;28;20993;-51
2021/12/11 04:08:52;;;;;;;2.30;2.10;;;;;;;;;;5025274;28;20526;-52
2021/12/11 04:11:22;;;;;;;2.23;1.77;;;;;;;;;;5057512;28;20439;-54
2021/12/11 04:13:49;;;;;;;1.70;1.60;;;;;;;;;;5020949;28;21009;-51
2021/12/11 04:16:15;;;;;;;2.53;2.33;;;;;;;;;;5042461;28;20624;-53
2021/12/11 04:18:41;;;;;;;2.40;2.20;;;;;;;;;;5037225;28;20439;-52
2021/12/11 04:21:07;;;;;;;2.40;2.20;;;;;;;;;;5042647;28;20526;-53
2021/12/11 04:23:33;;;;;;;3.83;3.27;;;;;;;;;;5020705;28;20431;-52
2021/12/11 04:25:59;;;;;;;3.10;2.90;;;;;;;;;;5046907;28;20458;-52
2021/12/11 04:28:27;;;;;;;3.23;3.00;;;;;;;;;;5028446;28;20439;-53
2021/12/11 04:30:54;;;;;;;2.50;2.30;;;;;;;;;;5024570;28;21299;-52
2021/12/11 04:33:23;;;;;;;2.40;2.07;;;;;;;;;;5041671;28;20442;-53
2021/12/11 04:35:50;;;;;;;2.50;2.30;;;;;;;;;;5022584;28;20928;-53
2021/12/11 04:38:16;;;;;;;3.10;2.77;;;;;;;;;;5041290;28;20529;-53
2021/12/11 04:40:43;;;;;;;3.20;2.90;;;;;;;;;;5015594;28;20437;-54
2021/12/11 04:43:14;;;;;;;2.60;2.40;;;;;;;;;;5045187;28;20935;-53
2021/12/11 04:45:43;;;;;;;2.03;1.93;;;;;;;;;;5028018;28;20486;-53
2021/12/11 04:48:19;;;;;;;2.50;2.30;;;;;;;;;;5041595;28;20453;-53
2021/12/11 04:54:47;;;;;;;2.33;2.13;;;;;;;;;;5026083;28;20543;-55
2021/12/11 05:04:42;;;;;;;3.13;2.83;;;;;;;;;;5038974;28;20521;-52
2021/12/11 05:07:31;;;;;;;4.40;3.20;;;;;;;;;;5033130;28;20984;-53
2021/12/11 05:10:21;;;;;;;2.63;2.43;;;;;;;;;;5042683;28;20431;-51
2021/12/11 05:12:49;;;;;;;4.27;2.90;;;;;;;;;;5005346;28;20548;-52
2021/12/11 05:15:26;;;;;;;4.10;3.10;;;;;;;;;;5048125;28;20419;-53
2021/12/11 05:17:53;;;;;;;3.93;3.53;;;;;;;;;;5029960;28;20534;-55
2021/12/11 05:20:20;;;;;;;4.17;3.67;;;;;;;;;;5043903;28;20445;-54
2021/12/11 05:22:46;;;;;;;4.97;3.10;;;;;;;;;;5021645;28;20442;-54
2021/12/11 05:25:13;;;;;;;4.97;4.43;;;;;;;;;;5041450;28;20449;-54
2021/12/11 05:27:41;;;;;;;3.40;3.10;;;;;;;;;;5012208;28;20513;-54
2021/12/11 05:30:09;;;;;;;3.87;3.47;;;;;;;;;;5046232;28;20430;-53
2021/12/11 05:32:36;;;;;;;4.37;3.60;;;;;;;;;;5029988;28;20499;-55
2021/12/11 05:35:02;;;;;;;3.67;3.37;;;;;;;;;;5040470;28;20442;-53
2021/12/11 05:37:28;;;;;;;4.00;3.57;;;;;;;;;;5053564;28;20445;-54
2021/12/11 05:39:54;;;;;;;3.90;3.50;;;;;;;;;;5024157;28;20430;-53
2021/12/11 05:42:21;;;;;;;3.40;3.10;;;;;;;;;;5057934;28;20422;-55
2021/12/11 05:44:46;;;;;;;3.50;3.20;;;;;;;;;;5003176;28;21419;-55
2021/12/11 05:47:12;;;;;;;3.50;3.20;;;;;;;;;;5043573;28;20587;-54
2021/12/11 05:49:41;;;;;;;3.27;2.93;;;;;;;;;;5021314;28;20439;-53
2021/12/11 05:52:07;;;;;;;3.40;3.10;;;;;;;;;;5041992;28;20450;-52
2021/12/11 05:54:34;;;;;;;4.70;4.27;;;;;;;;;;5019799;28;20447;-53
2021/12/11 05:57:02;;;;;;;4.10;3.70;;;;;;;;;;5051158;28;20447;-53
2021/12/11 05:59:29;;;;;;;4.20;3.80;;;;;;;;;;5034764;28;20450;-54
2021/12/11 06:01:57;;;;;;;4.30;3.67;;;;;;;;;;5033216;28;20728;-54
2021/12/11 06:04:26;;;;;;;4.27;3.70;;;;;;;;;;5020066;28;20440;-54
2021/12/11 06:06:52;;;;;;;4.67;4.27;;;;;;;;;;5051844;28;20535;-53
2021/12/11 06:09:20;;;;;;;5.73;5.13;;;;;;;;;;5034694;28;20462;-54
2021/12/11 06:11:47;;;;;;;5.10;3.87;;;;;;;;;;5039350;28;20571;-53
2021/12/11 06:14:13;;;;;;;4.50;4.07;;;;;;;;;;5021869;28;20446;-53
2021/12/11 06:16:39;;;;;;;6.10;4.03;;;;;;;;;;5043988;28;20426;-52
2021/12/11 06:19:06;;;;;;;4.67;4.10;;;;;;;;;;5000624;28;20512;-53
2021/12/11 06:21:35;;;;;;;5.40;4.90;;;;;;;;;;5039466;28;20442;-54
2021/12/11 06:24:01;;;;;;;4.47;4.07;;;;;;;;;;5016366;28;20436;-53
2021/12/11 06:26:27;;;;;;;4.87;4.20;;;;;;;;;;5041393;28;20494;-54
2021/12/11 06:29:07;;;;;;;7.00;4.37;;;;;;;;;;5025868;28;20462;-53
2021/12/11 06:31:35;;;;;;;4.93;4.43;;;;;;;;;;5043213;28;20587;-54
2021/12/11 06:34:03;;;;;;;5.03;4.50;;;;;;;;;;5023340;28;20468;-53
2021/12/11 06:36:29;;;;;;;6.03;5.20;;;;;;;;;;5045777;28;20517;-53
2021/12/11 06:38:56;;;;;;;5.00;4.50;;;;;;;;;;5029359;28;21096;-54
2021/12/11 06:41:23;;;;;;;6.00;4.77;;;;;;;;;;5042786;28;20961;-52
2021/12/11 06:43:50;;;;;;;8.20;4.97;;;;;;;;;;5029878;28;20639;-52
2021/12/11 06:46:27;;;;;;;6.07;5.47;;;;;;;;;;5027165;28;21717;-51
2021/12/11 06:48:58;;;;;;;5.40;4.90;;;;;;;;;;5041442;28;20608;-51
2021/12/11 06:51:24;;;;;;;5.80;5.17;;;;;;;;;;5015040;28;21045;-52
2021/12/11 06:53:52;;;;;;;5.00;4.30;;;;;;;;;;5034657;28;21006;-52
2021/12/11 06:56:29;;;;;;;7.90;5.77;;;;;;;;;;5043717;28;22272;-53
2021/12/11 06:58:57;;;;;;;5.40;4.90;;;;;;;;;;5043721;28;20449;-52
2021/12/11 07:01:27;;;;;;;5.93;5.27;;;;;;;;;;5022031;28;20512;-53
2021/12/11 07:03:56;;;;;;;6.37;4.87;;;;;;;;;;5036543;28;20447;-51
2021/12/11 07:06:48;;;;;;;5.87;5.27;;;;;;;;;;5034676;28;20502;-53
2021/12/11 07:09:14;;;;;;;5.47;4.70;;;;;;;;;;5042763;28;20501;-52
2021/12/11 07:11:43;;;;;;;6.77;6.10;;;;;;;;;;5016483;28;20453;-55
2021/12/11 07:14:14;;;;;;;5.90;5.30;;;;;;;;;;5059537;28;20478;-53
2021/12/11 07:16:40;;;;;;;6.17;5.30;;;;;;;;;;5021282;28;21546;-54
2021/12/11 07:19:06;;;;;;;5.90;4.97;;;;;;;;;;5046747;28;20521;-55
2021/12/11 07:21:36;;;;;;;5.37;4.40;;;;;;;;;;5035998;28;20530;-54
2021/12/11 07:24:03;;;;;;;4.70;4.30;;;;;;;;;;5042956;28;20544;-53
2021/12/11 07:26:42;;;;;;;7.10;5.10;;;;;;;;;;5022648;28;20533;-53
2021/12/11 07:29:11;;;;;;;6.60;5.00;;;;;;;;;;5045432;28;20541;-53
2021/12/11 07:31:38;;;;;;;8.03;5.33;;;;;;;;;;5035378;28;20466;-54
2021/12/11 07:34:05;;;;;;;4.33;3.93;;;;;;;;;;5041916;28;20825;-54
2021/12/11 07:36:32;;;;;;;6.60;5.33;;;;;;;;;;5037196;28;20434;-55
2021/12/11 07:39:04;;;;;;;9.53;6.40;;;;;;;;;;5027971;28;20438;-54
2021/12/11 07:41:30;;;;;;;7.23;5.80;;;;;;;;;;5042996;28;20438;-53
2021/12/11 07:43:56;;;;;;;7.00;6.30;;;;;;;;;;5041507;28;20446;-53
2021/12/11 07:46:23;;;;;;;7.80;6.03;;;;;;;;;;5038840;28;20550;-53
2021/12/11 07:48:57;;;;;;;7.03;5.83;;;;;;;;;;5032772;28;20469;-54
2021/12/11 07:51:34;;;;;;;10.17;8.23;;;;;;;;;;5053242;28;20475;-55
2021/12/11 07:54:00;;;;;;;8.20;7.00;;;;;;;;;;5028912;28;20497;-53
2021/12/11 07:56:26;;;;;;;8.40;7.50;;;;;;;;;;5044848;28;20566;-52
2021/12/11 07:58:54;;;;;;;11.13;7.33;;;;;;;;;;5037251;28;20492;-54
2021/12/11 08:01:20;;;;;;;8.90;6.57;;;;;;;;;;5040319;28;20505;-53
2021/12/11 08:03:46;;;;;;;7.63;6.77;;;;;;;;;;5010171;28;20522;-54
2021/12/11 08:06:12;;;;;;;8.83;7.67;;;;;;;;;;5037899;28;20482;-53
2021/12/11 08:08:40;;;;;;;11.27;8.37;;;;;;;;;;5018351;28;20867;-53
2021/12/11 08:11:11;;;;;;;10.37;8.00;;;;;;;;;;5035424;28;20428;-53
2021/12/11 08:13:37;;;;;;;8.43;7.53;;;;;;;;;;5027014;28;20931;-55
2021/12/11 08:16:10;;;;;;;10.17;9.17;;;;;;;;;;5039946;28;20457;-54
2021/12/11 08:18:36;;;;;;;12.90;8.77;;;;;;;;;;5038510;28;20538;-54
2021/12/11 08:21:02;;;;;;;13.87;10.47;;;;;;;;;;5041324;28;20443;-54
2021/12/11 08:23:30;;;;;;;11.73;8.80;;;;;;;;;;5039247;28;20533;-54
2021/12/11 08:25:58;;;;;;;10.40;7.77;;;;;;;;;;5021133;28;20922;-54
2021/12/11 08:28:28;;;;;;;11.73;9.13;;;;;;;;;;5025143;28;20755;-55
2021/12/11 08:30:54;;;;;;;12.60;8.33;;;;;;;;;;5036942;28;20438;-54
2021/12/11 08:33:20;;;;;;;10.17;8.17;;;;;;;;;;4986740;28;20442;-54
2021/12/11 08:35:47;;;;;;;11.87;8.47;;;;;;;;;;5040330;28;20430;-53
2021/12/11 08:38:13;;;;;;;10.80;8.60;;;;;;;;;;5011999;28;20438;-55
2021/12/11 08:40:41;;;;;;;13.40;9.27;;;;;;;;;;5035698;28;20438;-54
2021/12/11 08:43:07;;;;;;;12.90;9.37;;;;;;;;;;5036801;28;20423;-54
2021/12/11 08:45:45;;;;;;;10.33;9.00;;;;;;;;;;5038652;28;20457;-53
2021/12/11 08:48:12;;;;;;;13.20;10.07;;;;;;;;;;5010935;28;20537;-54
2021/12/11 08:50:38;;;;;;;9.67;8.30;;;;;;;;;;5040720;28;20683;-54
2021/12/11 08:53:04;;;;;;;10.87;8.23;;;;;;;;;;5032880;28;20524;-54
2021/12/11 08:55:32;;;;;;;11.30;9.07;;;;;;;;;;5043121;28;20996;-53
2021/12/11 08:57:59;;;;;;;10.87;9.10;;;;;;;;;;5021264;28;21085;-53
2021/12/11 09:00:31;;;;;;;11.93;9.20;;;;;;;;;;5036756;28;20461;-53
2021/12/11 09:03:17;;;;;;;12.00;9.77;;;;;;;;;;5021121;28;20426;-52
2021/12/11 09:05:51;;;;;;;10.97;8.73;;;;;;;;;;5003487;28;20533;-53
2021/12/11 09:08:19;;;;;;;9.67;8.67;;;;;;;;;;5040809;28;20447;-53
2021/12/11 09:10:48;;;;;;;11.73;8.60;;;;;;;;;;5017106;28;20763;-53
2021/12/11 09:13:31;;;;;;;14.10;10.33;;;;;;;;;;5010824;28;20750;-54
2021/12/11 09:15:57;;;;;;;13.37;9.77;;;;;;;;;;5031788;28;20426;-55
2021/12/11 09:18:28;;;;;;;12.33;9.33;;;;;;;;;;5003578;28;21104;-52
2021/12/11 09:20:56;;;;;;;11.07;8.70;;;;;;;;;;5010627;28;20446;-52
2021/12/11 09:23:33;;;;;;;8.67;7.47;;;;;;;;;;5033300;28;20446;-55
2021/12/11 09:26:06;;;;;;;9.83;8.37;;;;;;;;;;5033965;28;20576;-55
2021/12/11 09:28:33;;;;;;;9.63;7.97;;;;;;;;;;5038965;28;20441;-54
2021/12/11 09:31:11;;;;;;;10.87;7.80;;;;;;;;;;5036401;28;20587;-56
2021/12/11 09:33:41;;;;;;;14.60;9.17;;;;;;;;;;5042824;28;20441;-54
2021/12/11 09:36:32;;;;;;;11.00;8.10;;;;;;;;;;4998322;28;20974;-54
2021/12/11 09:39:23;;;;;;;8.17;6.87;;;;;;;;;;5042001;28;20445;-53
2021/12/11 09:41:49;;;;;;;9.03;7.97;;;;;;;;;;5031351;28;20613;-53
2021/12/11 09:44:37;;;;;;;7.70;6.50;;;;;;;;;;5031478;28;20602;-59
2021/12/11 09:47:13;;;;;;;8.60;6.97;;;;;;;;;;5021966;28;20482;-53
2021/12/11 09:49:43;;;;;;;8.80;6.03;;;;;;;;;;4994368;28;20548;-55
2021/12/11 09:52:23;;;;;;;8.57;6.60;;;;;;;;;;5023747;28;20437;-54
2021/12/11 09:54:51;;;;;;;8.60;6.60;;;;;;;;;;5025734;28;20430;-53
2021/12/11 09:57:21;;;;;;;7.17;6.37;;;;;;;;;;5033709;28;20576;-54
2021/12/11 09:59:49;;;;;;;7.90;6.30;;;;;;;;;;5037870;28;20848;-54
2021/12/11 10:02:17;;;;;;;9.77;6.60;;;;;;;;;;5036741;28;20438;-53
2021/12/11 10:04:52;;;;;;;9.03;8.00;;;;;;;;;;5013352;28;20724;-53
2021/12/11 10:07:28;;;;;;;6.30;5.23;;;;;;;;;;5034141;28;20891;-52
2021/12/11 10:09:55;;;;;;;8.10;6.10;;;;;;;;;;5000069;28;20958;-52
2021/12/11 10:12:27;;;;;;;8.53;5.10;;;;;;;;;;5041716;28;20448;-53
2021/12/11 10:15:05;;;;;;;7.57;5.40;;;;;;;;;;5028440;28;20426;-54
2021/12/11 10:17:37;;;;;;;8.20;5.17;;;;;;;;;;5035749;28;20434;-54
2021/12/11 10:20:04;;;;;;;7.00;4.60;;;;;;;;;;5018300;28;21067;-54
2021/12/11 10:22:31;;;;;;;8.63;5.83;;;;;;;;;;5050184;28;20430;-52
2021/12/11 10:24:57;;;;;;;6.80;6.10;;;;;;;;;;5024718;28;20450;-52
2021/12/11 10:27:25;;;;;;;7.37;6.50;;;;;;;;;;5047545;28;20489;-54
2021/12/11 10:29:52;;;;;;;8.73;5.70;;;;;;;;;;5022686;28;20520;-54
2021/12/11 10:32:19;;;;;;;6.63;5.30;;;;;;;;;;5045837;28;20426;-53
2021/12/11 10:34:46;;;;;;;7.03;4.97;;;;;;;;;;5040886;28;20434;-53
2021/12/11 10:37:15;;;;;;;7.63;5.63;;;;;;;;;;5044649;28;20473;-54
2021/12/11 10:39:42;;;;;;;6.33;5.03;;;;;;;;;;5001116;28;20435;-53
2021/12/11 10:42:08;;;;;;;5.90;5.40;;;;;;;;;;5024410;28;20805;-53
2021/12/11 10:44:35;;;;;;;5.23;4.73;;;;;;;;;;5026212;28;20446;-53
2021/12/11 10:47:06;;;;;;;6.30;5.23;;;;;;;;;;5046000;28;20561;-54
2021/12/11 10:49:33;;;;;;;6.63;5.10;;;;;;;;;;5036181;28;20892;-54
2021/12/11 10:52:01;;;;;;;6.03;5.43;;;;;;;;;;5046697;28;20552;-53
2021/12/11 10:54:28;;;;;;;7.70;6.07;;;;;;;;;;5020085;28;20438;-54
2021/12/11 10:56:54;;;;;;;7.93;4.97;;;;;;;;;;5045162;28;20533;-54
2021/12/11 10:59:23;;;;;;;8.90;5.57;;;;;;;;;;5022075;28;20419;-53
2021/12/11 11:02:03;;;;;;;6.30;5.47;;;;;;;;;;5043720;28;20768;-54
2021/12/11 11:04:31;;;;;;;4.87;4.37;;;;;;;;;;5021493;28;20446;-54
2021/12/11 11:06:58;;;;;;;5.70;4.30;;;;;;;;;;5041173;28;20479;-54
2021/12/11 11:09:24;;;;;;;5.90;4.40;;;;;;;;;;5036417;28;20435;-53
2021/12/11 11:11:51;;;;;;;7.03;5.43;;;;;;;;;;5039161;28;20944;-53
2021/12/11 11:14:18;;;;;;;6.10;4.40;;;;;;;;;;4992779;28;20450;-54
2021/12/11 11:16:45;;;;;;;7.10;6.27;;;;;;;;;;5049446;28;20967;-54
2021/12/11 11:19:11;;;;;;;10.03;5.10;;;;;;;;;;5018716;28;20454;-54
2021/12/11 11:21:41;;;;;;;5.50;5.00;;;;;;;;;;5036970;28;20633;-53
2021/12/11 11:24:08;;;;;;;10.80;7.40;;;;;;;;;;5017985;28;20561;-58
2021/12/11 11:26:35;;;;;;;8.97;6.70;;;;;;;;;;5041185;28;20493;-54
2021/12/11 11:29:02;;;;;;;5.03;4.50;;;;;;;;;;5038425;28;20865;-55
2021/12/11 11:31:34;;;;;;;6.00;5.43;;;;;;;;;;5041316;28;20546;-54
2021/12/11 11:34:00;;;;;;;6.83;4.90;;;;;;;;;;5021230;28;20438;-52
2021/12/11 11:36:27;;;;;;;8.37;6.23;;;;;;;;;;5043162;28;20466;-53
2021/12/11 11:38:55;;;;;;;6.47;4.80;;;;;;;;;;5031955;28;20457;-53
2021/12/11 11:41:23;;;;;;;7.33;5.63;;;;;;;;;;5037409;28;20430;-53
2021/12/11 11:43:50;;;;;;;7.20;5.50;;;;;;;;;;5040099;28;20478;-53
2021/12/11 11:46:16;;;;;;;5.87;5.20;;;;;;;;;;5040260;28;20493;-54
2021/12/11 11:48:43;;;;;;;7.07;5.10;;;;;;;;;;4991024;28;20460;-52
2021/12/11 11:51:16;;;;;;;6.20;5.20;;;;;;;;;;5052793;28;20442;-54
2021/12/11 11:53:42;;;;;;;8.60;6.00;;;;;;;;;;5035704;28;21045;-54
2021/12/11 11:56:09;;;;;;;8.93;5.80;;;;;;;;;;5040617;28;20846;-53
2021/12/11 11:58:38;;;;;;;10.50;7.03;;;;;;;;;;5026895;28;20435;-53
2021/12/11 12:01:20;;;;;;;6.13;4.80;;;;;;;;;;5046240;28;20505;-54
2021/12/11 12:03:46;;;;;;;5.80;5.20;;;;;;;;;;5018875;28;20431;-53
2021/12/11 12:06:13;;;;;;;8.43;6.40;;;;;;;;;;5043648;28;20634;-54
2021/12/11 12:08:41;;;;;;;10.03;6.37;;;;;;;;;;5030645;28;20473;-53
2021/12/11 12:11:08;;;;;;;7.13;5.00;;;;;;;;;;5041170;28;20819;-54
2021/12/11 12:13:35;;;;;;;5.23;4.70;;;;;;;;;;5023267;28;20478;-54
2021/12/11 12:16:09;;;;;;;6.77;5.73;;;;;;;;;;5041293;28;20446;-55
2021/12/11 12:18:38;;;;;;;6.03;5.23;;;;;;;;;;5027691;28;21096;-53
2021/12/11 12:21:05;;;;;;;7.57;5.80;;;;;;;;;;4995742;28;20477;-53
2021/12/11 12:23:32;;;;;;;7.87;5.40;;;;;;;;;;5006630;28;20504;-54
2021/12/11 12:26:01;;;;;;;8.13;4.80;;;;;;;;;;5034261;28;20482;-54
2021/12/11 12:28:28;;;;;;;6.57;5.20;;;;;;;;;;5034531;28;20529;-53
2021/12/11 12:30:56;;;;;;;6.53;4.90;;;;;;;;;;5058212;28;20952;-55
2021/12/11 12:33:22;;;;;;;6.27;5.17;;;;;;;;;;5029404;28;20446;-53
2021/12/11 12:35:48;;;;;;;5.30;4.00;;;;;;;;;;5044240;28;20529;-54
2021/12/11 12:38:15;;;;;;;4.97;4.40;;;;;;;;;;5015478;28;20442;-54
2021/12/11 12:40:42;;;;;;;8.97;4.80;;;;;;;;;;5044116;28;20451;-53
2021/12/11 12:43:42;;;;;;;6.97;4.53;;;;;;;;;;5032182;28;20584;-53
2021/12/11 12:46:06;;;;;;;6.17;4.47;;;;;;;;;;5035016;28;20490;-54
2021/12/11 12:48:32;;;;;;;7.20;4.53;;;;;;;;;;5012105;28;20464;-54
2021/12/11 12:50:59;;;;;;;8.53;4.90;;;;;;;;;;5050491;28;20996;-53
2021/12/11 12:53:44;;;;;;;6.90;6.00;;;;;;;;;;5022564;28;21254;-53
2021/12/11 12:56:14;;;;;;;7.93;5.07;;;;;;;;;;5036723;28;20530;-53
2021/12/11 12:58:43;;;;;;;6.33;3.93;;;;;;;;;;5017953;28;20536;-53
2021/12/11 13:01:14;;;;;;;3.63;3.17;;;;;;;;;;5041850;28;20442;-54
2021/12/11 13:03:42;;;;;;;5.57;4.53;;;;;;;;;;5045925;28;20530;-54
2021/12/11 13:06:20;;;;;;;5.53;4.30;;;;;;;;;;5041976;28;20556;-54
2021/12/11 13:08:49;;;;;;;5.43;4.43;;;;;;;;;;5023507;28;20451;-54
2021/12/11 13:11:35;;;;;;;5.50;3.50;;;;;;;;;;5034616;28;20435;-54
2021/12/11 13:14:01;;;;;;;5.37;4.87;;;;;;;;;;5019341;28;20438;-53
2021/12/11 13:16:31;;;;;;;5.70;4.23;;;;;;;;;;5043893;28;20446;-53
2021/12/11 13:19:05;;;;;;;4.50;3.77;;;;;;;;;;5016227;28;20442;-54
2021/12/11 13:21:41;;;;;;;5.07;4.10;;;;;;;;;;5044153;28;20441;-54
2021/12/11 13:24:08;;;;;;;5.17;4.53;;;;;;;;;;4997540;28;20461;-53
2021/12/11 13:26:40;;;;;;;5.20;4.70;;;;;;;;;;5039998;28;20508;-55
2021/12/11 13:29:11;;;;;;;6.60;4.37;;;;;;;;;;5030865;28;20476;-55
2021/12/11 13:32:02;;;;;;;6.13;3.80;;;;;;;;;;5041619;28;20454;-52
2021/12/11 13:34:28;;;;;;;6.97;5.27;;;;;;;;;;5043110;28;20478;-52
2021/12/11 13:37:20;;;;;;;6.10;4.53;;;;;;;;;;5044164;28;20443;-53
2021/12/11 13:39:53;;;;;;;5.93;5.20;;;;;;;;;;5039026;28;20956;-54
2021/12/11 13:42:21;;;;;;;4.80;4.10;;;;;;;;;;5030133;28;20559;-52
2021/12/11 13:44:48;;;;;;;6.33;5.07;;;;;;;;;;5039963;28;20488;-53
2021/12/11 13:47:16;;;;;;;4.60;4.13;;;;;;;;;;5020129;28;22193;-54
2021/12/11 13:49:43;;;;;;;7.10;5.00;;;;;;;;;;5041706;28;20521;-54
2021/12/11 13:52:09;;;;;;;7.27;5.10;;;;;;;;;;5031466;28;20446;-53
2021/12/11 13:54:37;;;;;;;5.23;4.20;;;;;;;;;;5035532;28;20434;-55
2021/12/11 13:57:23;;;;;;;5.53;5.03;;;;;;;;;;5021082;28;20456;-54
2021/12/11 13:59:49;;;;;;;7.50;5.13;;;;;;;;;;5042115;28;20457;-53
2021/12/11 14:02:17;;;;;;;4.93;3.60;;;;;;;;;;5035125;28;20454;-54
2021/12/11 14:04:44;;;;;;;4.10;3.70;;;;;;;;;;5023708;28;20920;-54
2021/12/11 14:07:19;;;;;;;4.37;3.50;;;;;;;;;;5031498;28;20478;-54
2021/12/11 14:10:08;;;;;;;5.43;4.10;;;;;;;;;;5038596;28;20426;-55
2021/12/11 14:12:36;;;;;;;5.37;3.17;;;;;;;;;;5044203;28;20851;-54
2021/12/11 14:15:10;;;;;;;4.87;3.63;;;;;;;;;;5039382;28;20426;-55
2021/12/11 14:17:36;;;;;;;6.40;3.47;;;;;;;;;;5026435;28;20889;-53
2021/12/11 14:20:02;;;;;;;4.70;4.00;;;;;;;;;;5037241;28;21056;-55
2021/12/11 14:22:28;;;;;;;3.20;2.77;;;;;;;;;;5025598;28;20571;-54
2021/12/11 14:24:54;;;;;;;4.40;4.00;;;;;;;;;;5042587;28;20465;-54
2021/12/11 14:27:20;;;;;;;5.00;4.17;;;;;;;;;;5020435;28;20466;-53
2021/12/11 14:29:51;;;;;;;5.23;4.00;;;;;;;;;;5044380;28;20438;-52
2021/12/11 14:32:20;;;;;;;4.93;4.00;;;;;;;;;;5012124;28;20449;-54
2021/12/11 14:34:48;;;;;;;5.10;4.03;;;;;;;;;;5041202;28;20605;-54
2021/12/11 14:37:14;;;;;;;9.30;5.27;;;;;;;;;;5015778;28;20526;-54
2021/12/11 14:39:46;;;;;;;5.47;4.77;;;;;;;;;;5038516;28;20472;-53
2021/12/11 14:42:24;;;;;;;5.13;4.10;;;;;;;;;;5038061;28;20951;-54
2021/12/11 14:44:51;;;;;;;4.93;4.43;;;;;;;;;;5024257;28;20526;-54
2021/12/11 14:47:17;;;;;;;5.63;3.90;;;;;;;;;;5042402;28;20577;-54
2021/12/11 14:49:44;;;;;;;6.43;5.20;;;;;;;;;;5017585;28;21270;-54
2021/12/11 14:52:28;;;;;;;10.23;5.57;;;;;;;;;;5036074;28;20454;-54
2021/12/11 14:55:07;;;;;;;7.07;6.10;;;;;;;;;;5031996;28;20678;-55
2021/12/11 14:57:35;;;;;;;4.83;4.33;;;;;;;;;;5038376;28;20541;-57
2021/12/11 15:00:02;;;;;;;6.53;4.73;;;;;;;;;;5012655;28;20943;-55
2021/12/11 15:02:36;;;;;;;6.00;4.67;;;;;;;;;;5041636;28;20545;-54
2021/12/11 15:05:03;;;;;;;9.40;5.87;;;;;;;;;;4997907;28;20921;-53
2021/12/11 15:07:29;;;;;;;7.87;5.97;;;;;;;;;;5039033;28;20474;-55